createdAt,value
2022-11-29T00:01:21.628Z,74.85
2022-11-29T00:03:49.335Z,73.15
2022-11-29T00:21:12.872Z,75.99
2022-11-29T00:23:40.257Z,75.79
2022-11-29T00:26:07.680Z,75.77
2022-11-29T00:28:35.495Z,75.31
2022-11-29T00:31:23.051Z,75.32
2022-11-29T00:33:50.734Z,77.32
2022-11-29T00:36:18.057Z,73.48
2022-11-29T00:38:45.787Z,74.59
2022-11-29T00:41:13.465Z,73.22
2022-11-29T00:43:40.798Z,75.10
2022-11-29T00:46:08.715Z,76.16
2022-11-29T00:48:36.459Z,75.63
2022-11-29T00:51:04.470Z,74.60
2022-11-29T00:53:32.082Z,73.94
2022-11-29T00:55:59.672Z,77.68
2022-11-29T00:58:27.440Z,75.78
2022-11-29T01:00:54.961Z,75.41
2022-11-29T01:03:22.760Z,73.36
2022-11-29T01:05:50.356Z,72.25
2022-11-29T01:08:17.742Z,71.05
2022-11-29T01:10:45.329Z,71.83
2022-11-29T01:13:12.694Z,71.02
2022-11-29T01:15:40.029Z,70.60
2022-11-29T01:18:07.643Z,71.71
2022-11-29T01:20:35.113Z,75.44
2022-11-29T01:23:02.448Z,73.33
2022-11-29T01:25:32.083Z,72.75
2022-11-29T01:27:59.667Z,71.45
2022-11-29T01:30:27.058Z,71.57
2022-11-29T01:32:55.686Z,71.34
2022-11-29T01:35:23.005Z,70.38
2022-11-29T01:37:50.354Z,72.19
2022-11-29T01:40:18.615Z,70.75
2022-11-29T01:42:45.988Z,71.35
2022-11-29T01:45:21.910Z,73.40
2022-11-29T01:47:49.553Z,70.91
2022-11-29T01:50:16.953Z,71.61
2022-11-29T01:52:44.307Z,71.87
2022-11-29T01:55:11.941Z,71.14
2022-11-29T01:57:40.497Z,70.90
2022-11-29T02:00:11.274Z,71.23
2022-11-29T02:02:55.790Z,71.63
2022-11-29T02:05:23.490Z,73.01
2022-11-29T02:07:52.981Z,72.22
2022-11-29T02:10:20.499Z,71.64
2022-11-29T02:12:58.954Z,71.90
2022-11-29T02:15:54.365Z,72.57
2022-11-29T02:18:59.201Z,71.14
2022-11-29T02:21:47.072Z,72.71
2022-11-29T02:24:14.498Z,76.16
2022-11-29T02:27:15.435Z,76.01
2022-11-29T02:30:01.319Z,74.52
2022-11-29T02:32:50.460Z,78.22
2022-11-29T02:35:36.256Z,77.17
2022-11-29T02:38:06.594Z,75.84
2022-11-29T02:40:52.562Z,74.56
2022-11-29T02:43:43.990Z,75.72
2022-11-29T02:46:43.728Z,75.65
2022-11-29T02:49:42.427Z,74.99
2022-11-29T02:52:17.770Z,78.58
2022-11-29T02:54:53.088Z,77.23
2022-11-29T02:57:29.472Z,75.95
2022-11-29T03:00:10.904Z,76.85
2022-11-29T03:02:40.812Z,77.95
2022-11-29T03:05:23.270Z,75.97
2022-11-29T03:08:15.808Z,74.86
2022-11-29T03:11:15.161Z,74.02
2022-11-29T03:13:46.007Z,73.30
2022-11-29T03:16:16.307Z,73.88
2022-11-29T03:18:58.408Z,73.50
2022-11-29T03:21:47.987Z,71.96
2022-11-29T03:24:20.176Z,72.86
2022-11-29T03:27:01.708Z,75.59
2022-11-29T03:29:41.043Z,75.06
2022-11-29T03:32:19.848Z,75.98
2022-11-29T03:34:54.328Z,73.62
2022-11-29T03:37:42.632Z,72.98
2022-11-29T03:40:16.047Z,72.14
2022-11-29T03:42:49.646Z,71.36
2022-11-29T03:45:29.393Z,71.08
2022-11-29T03:48:00.152Z,71.67
2022-11-29T03:50:33.404Z,72.77
2022-11-29T03:53:28.419Z,71.13
2022-11-29T03:56:00.838Z,72.88
2022-11-29T03:58:36.855Z,72.29
2022-11-29T04:01:35.652Z,70.94
2022-11-29T04:04:48.136Z,70.72
2022-11-29T04:07:21.377Z,70.57
2022-11-29T04:10:13.266Z,75.16
2022-11-29T04:12:51.690Z,72.40
2022-11-29T04:15:41.171Z,70.66
2022-11-29T04:18:14.541Z,71.08
2022-11-29T04:20:48.592Z,72.91
2022-11-29T04:23:30.581Z,74.44
2022-11-29T04:26:39.846Z,76.98
2022-11-29T04:29:10.092Z,72.21
2022-11-29T04:31:53.788Z,72.95
2022-11-29T04:34:44.107Z,71.61
2022-11-29T04:37:36.387Z,71.53
2022-11-29T04:40:22.242Z,75.75
2022-11-29T04:43:11.478Z,73.09
2022-11-29T04:45:47.332Z,73.35
2022-11-29T04:48:39.214Z,73.54
2022-11-29T04:51:15.979Z,74.35
2022-11-29T04:53:51.105Z,75.46
2022-11-29T04:56:43.275Z,74.68
2022-11-29T04:59:32.511Z,74.09
2022-11-29T05:02:37.305Z,72.98
2022-11-29T05:05:19.951Z,74.67
2022-11-29T05:08:14.572Z,71.94
2022-11-29T05:11:03.797Z,74.90
2022-11-29T05:14:00.452Z,72.91
2022-11-29T05:16:45.618Z,75.82
2022-11-29T05:19:34.615Z,71.96
2022-11-29T05:22:40.019Z,73.27
2022-11-29T05:25:25.894Z,73.33
2022-11-29T05:28:10.598Z,74.71
2022-11-29T05:31:04.087Z,71.21
2022-11-29T05:33:46.716Z,71.09
2022-11-29T05:36:23.008Z,70.80
2022-11-29T05:39:14.481Z,72.20
2022-11-29T05:42:03.326Z,71.20
2022-11-29T05:44:39.069Z,71.82
2022-11-29T05:47:10.184Z,71.27
2022-11-29T05:49:54.017Z,69.58
2022-11-29T05:52:50.954Z,75.96
2022-11-29T05:55:56.296Z,76.93
2022-11-29T05:58:30.500Z,75.52
2022-11-29T06:01:24.437Z,75.24
2022-11-29T06:04:14.724Z,77.45
2022-11-29T06:07:01.549Z,78.69
2022-11-29T06:09:41.467Z,77.23
2022-11-29T06:12:22.514Z,75.07
2022-11-29T06:15:10.507Z,76.81
2022-11-29T06:18:19.123Z,77.20
2022-11-29T06:20:52.756Z,74.21
2022-11-29T06:23:20.011Z,73.24
2022-11-29T06:26:03.699Z,76.93
2022-11-29T06:28:54.919Z,78.74
2022-11-29T06:31:28.680Z,76.91
2022-11-29T06:34:02.366Z,78.00
2022-11-29T06:36:52.995Z,78.58
2022-11-29T06:39:20.576Z,76.02
2022-11-29T06:41:48.895Z,76.02
2022-11-29T06:44:16.605Z,75.15
2022-11-29T06:46:45.962Z,73.04
2022-11-29T06:49:29.121Z,76.09
2022-11-29T06:52:50.356Z,75.05
2022-11-29T06:55:26.607Z,74.04
2022-11-29T06:58:09.821Z,74.11
2022-11-29T07:00:50.539Z,73.29
2022-11-29T07:03:29.815Z,71.43
2022-11-29T07:05:57.569Z,70.53
2022-11-29T07:08:25.421Z,69.64
2022-11-29T07:10:54.098Z,72.53
2022-11-29T07:13:21.973Z,73.12
2022-11-29T07:16:15.940Z,70.81
2022-11-29T07:19:10.990Z,70.76
2022-11-29T07:21:59.071Z,72.02
2022-11-29T07:24:52.044Z,71.47
2022-11-29T07:27:42.106Z,70.22
2022-11-29T07:30:33.453Z,69.48
2022-11-29T07:33:25.181Z,70.38
2022-11-29T07:36:15.503Z,69.91
2022-11-29T07:39:17.887Z,69.18
2022-11-29T07:42:18.296Z,68.31
2022-11-29T07:44:55.345Z,70.00
2022-11-29T07:47:22.930Z,72.83
2022-11-29T07:49:50.251Z,70.47
2022-11-29T07:52:17.755Z,69.82
2022-11-29T07:54:45.597Z,69.10
2022-11-29T07:57:13.387Z,69.30
2022-11-29T07:59:40.816Z,68.26
2022-11-29T08:02:11.966Z,72.05
2022-11-29T08:04:46.050Z,72.66
2022-11-29T08:07:13.599Z,74.02
2022-11-29T08:09:41.208Z,73.93
2022-11-29T08:12:08.622Z,73.22
2022-11-29T08:14:35.981Z,73.86
2022-11-29T08:17:04.050Z,77.41
2022-11-29T08:19:31.415Z,74.05
2022-11-29T08:21:58.885Z,74.78
2022-11-29T08:24:26.880Z,71.59
2022-11-29T08:26:54.415Z,70.25
2022-11-29T08:29:21.733Z,72.00
2022-11-29T08:31:53.600Z,69.83
2022-11-29T08:34:21.873Z,70.27
2022-11-29T08:36:50.033Z,71.63
2022-11-29T08:39:17.457Z,73.08
2022-11-29T08:41:44.810Z,70.19
2022-11-29T08:44:12.397Z,70.56
2022-11-29T08:46:58.768Z,72.76
2022-11-29T08:49:26.373Z,72.12
2022-11-29T08:52:13.719Z,71.17
2022-11-29T08:54:42.626Z,70.76
2022-11-29T08:57:38.419Z,72.02
2022-11-29T08:59:57.792Z,71.43
2022-11-29T09:02:25.235Z,72.08
2022-11-29T09:04:52.646Z,71.93
2022-11-29T09:07:20.344Z,69.57
2022-11-29T09:09:48.365Z,70.35
2022-11-29T09:12:15.691Z,70.29
2022-11-29T09:14:43.689Z,71.72
2022-11-29T09:17:11.334Z,68.02
2022-11-29T09:19:38.770Z,66.40
2022-11-29T09:22:06.385Z,71.35
2022-11-29T09:24:33.812Z,74.93
2022-11-29T09:27:01.210Z,72.76
2022-11-29T09:29:29.149Z,72.31
2022-11-29T09:31:56.561Z,70.30
2022-11-29T09:34:23.911Z,69.15
2022-11-29T09:36:51.608Z,68.64
2022-11-29T09:39:19.029Z,67.87
2022-11-29T09:42:04.615Z,69.93
2022-11-29T09:44:59.667Z,66.82
2022-11-29T09:47:48.500Z,71.36
2022-11-29T09:50:25.421Z,73.38
2022-11-29T09:52:55.445Z,74.72
2022-11-29T09:55:32.310Z,71.63
2022-11-29T09:57:59.847Z,69.76
2022-11-29T10:00:27.343Z,68.07
2022-11-29T10:03:03.274Z,68.28
2022-11-29T10:06:05.462Z,68.10
2022-11-29T10:08:38.425Z,70.31
2022-11-29T10:11:18.302Z,68.00
2022-11-29T10:13:51.782Z,65.70
2022-11-29T10:16:36.243Z,66.69
2022-11-29T10:19:07.897Z,67.22
2022-11-29T10:21:36.709Z,68.54
2022-11-29T10:24:07.151Z,65.42
2022-11-29T10:26:35.638Z,72.67
2022-11-29T10:29:03.023Z,70.42
2022-11-29T10:31:36.055Z,73.07
2022-11-29T10:34:11.419Z,70.13
2022-11-29T10:36:43.355Z,68.45
2022-11-29T10:39:49.640Z,66.54
2022-11-29T10:42:37.587Z,67.90
2022-11-29T10:45:07.868Z,72.53
2022-11-29T10:47:35.713Z,70.54
2022-11-29T10:50:03.082Z,73.20
2022-11-29T10:52:30.441Z,72.14
2022-11-29T10:54:58.573Z,68.59
2022-11-29T10:57:26.101Z,69.90
2022-11-29T11:00:08.057Z,69.21
2022-11-29T11:02:35.666Z,67.31
2022-11-29T11:05:03.778Z,66.24
2022-11-29T11:07:35.701Z,66.16
2022-11-29T11:10:19.527Z,66.51
2022-11-29T11:13:03.840Z,66.72
2022-11-29T11:15:31.842Z,67.97
2022-11-29T11:18:04.942Z,67.05
2022-11-29T11:20:35.163Z,67.98
2022-11-29T11:23:26.756Z,68.12
2022-11-29T11:26:07.102Z,68.66
2022-11-29T11:28:51.703Z,66.62
2022-11-29T11:31:34.118Z,65.51
2022-11-29T11:34:24.647Z,65.36
2022-11-29T11:36:53.543Z,69.11
2022-11-29T11:39:22.636Z,66.44
2022-11-29T11:42:09.070Z,68.72
2022-11-29T11:44:49.892Z,67.57
2022-11-29T11:47:22.231Z,68.96
2022-11-29T11:49:56.558Z,70.04
2022-11-29T11:52:26.451Z,68.25
2022-11-29T11:54:55.558Z,67.26
2022-11-29T11:57:23.179Z,67.13
2022-11-29T11:59:50.877Z,65.82
2022-11-29T12:02:28.315Z,67.23
2022-11-29T12:04:58.776Z,68.67
2022-11-29T12:08:06.184Z,70.32
2022-11-29T12:10:28.765Z,66.69
2022-11-29T12:12:56.457Z,65.89
2022-11-29T12:15:26.927Z,68.63
2022-11-29T12:18:06.123Z,66.02
2022-11-29T12:20:36.751Z,67.74
2022-11-29T12:23:13.016Z,65.16
2022-11-29T12:25:49.674Z,66.94
2022-11-29T12:28:20.537Z,64.98
2022-11-29T12:31:20.006Z,67.09
2022-11-29T12:33:57.541Z,69.38
2022-11-29T12:36:52.814Z,68.29
2022-11-29T12:39:41.443Z,70.04
2022-11-29T12:42:15.994Z,68.31
2022-11-29T12:44:53.044Z,66.38
2022-11-29T12:47:51.477Z,66.35
2022-11-29T12:50:26.246Z,65.54
2022-11-29T12:53:14.105Z,67.14
2022-11-29T12:56:00.203Z,67.62
2022-11-29T12:58:33.418Z,65.40
2022-11-29T13:01:20.997Z,67.87
2022-11-29T13:04:08.253Z,69.92
2022-11-29T13:07:07.929Z,69.39
2022-11-29T13:09:48.782Z,67.39
2022-11-29T13:12:33.137Z,66.22
2022-11-29T13:15:03.948Z,65.58
2022-11-29T13:17:43.823Z,66.50
2022-11-29T13:20:32.911Z,65.23
2022-11-29T13:24:07.391Z,67.70
2022-11-29T13:26:29.582Z,68.39
2022-11-29T13:28:57.080Z,70.01
2022-11-29T13:31:25.415Z,69.97
2022-11-29T13:33:58.832Z,68.54
2022-11-29T13:36:38.573Z,70.72
2022-11-29T13:39:24.460Z,67.39
2022-11-29T13:42:10.222Z,68.49
2022-11-29T13:44:50.459Z,67.85
2022-11-29T13:47:18.634Z,68.03
2022-11-29T13:49:55.187Z,68.32
2022-11-29T13:52:37.453Z,71.02
2022-11-29T13:55:18.643Z,67.95
2022-11-29T13:58:16.803Z,66.67
2022-11-29T14:00:45.172Z,65.33
2022-11-29T14:03:18.576Z,65.77
2022-11-29T14:05:46.733Z,64.16
2022-11-29T14:08:37.893Z,63.69
2022-11-29T14:11:16.544Z,69.85
2022-11-29T14:13:51.679Z,68.70
2022-11-29T14:16:39.821Z,69.00
2022-11-29T14:19:10.292Z,67.65
2022-11-29T14:21:59.188Z,69.23
2022-11-29T14:24:32.748Z,69.45
2022-11-29T14:27:06.001Z,66.29
2022-11-29T14:29:54.921Z,68.96
2022-11-29T14:32:46.542Z,67.75
2022-11-29T14:35:21.991Z,66.66
2022-11-29T14:38:05.902Z,66.53
2022-11-29T14:40:42.605Z,67.97
2022-11-29T14:43:21.151Z,67.27
2022-11-29T14:46:06.647Z,71.65
2022-11-29T14:48:34.051Z,71.57
2022-11-29T14:51:09.090Z,68.55
2022-11-29T14:53:36.823Z,70.23
2022-11-29T14:56:29.714Z,70.96
2022-11-29T14:59:34.477Z,70.45
2022-11-29T15:02:04.940Z,69.80
2022-11-29T15:04:35.664Z,69.39
2022-11-29T15:07:03.295Z,69.25
2022-11-29T15:09:30.655Z,72.66
2022-11-29T15:12:08.202Z,70.42
2022-11-29T15:14:51.288Z,70.12
2022-11-29T15:17:56.378Z,70.07
2022-11-29T15:20:58.135Z,72.51
2022-11-29T15:23:25.502Z,70.83
2022-11-29T15:25:54.625Z,70.66
2022-11-29T15:28:23.731Z,73.50
2022-11-29T15:31:00.360Z,70.98
2022-11-29T15:33:28.420Z,74.49
2022-11-29T15:36:20.250Z,72.64
2022-11-29T15:38:52.437Z,72.91
2022-11-29T15:41:30.203Z,73.56
2022-11-29T15:43:59.702Z,71.00
2022-11-29T15:46:28.450Z,71.73
2022-11-29T15:48:56.227Z,76.71
2022-11-29T15:51:31.177Z,73.71
2022-11-29T15:54:13.258Z,74.25
2022-11-29T15:56:44.212Z,74.23
2022-11-29T15:59:29.676Z,73.58
2022-11-29T16:01:58.492Z,71.96
2022-11-29T16:04:27.193Z,70.98
2022-11-29T16:06:54.637Z,69.79
2022-11-29T16:09:43.056Z,69.14
2022-11-29T16:12:19.729Z,68.21
2022-11-29T16:14:50.801Z,69.53
2022-11-29T16:17:19.367Z,71.72
2022-11-29T16:19:47.069Z,69.49
2022-11-29T16:22:17.496Z,69.71
2022-11-29T16:25:14.839Z,72.36
2022-11-29T16:27:42.381Z,71.06
2022-11-29T16:30:40.152Z,70.94
2022-11-29T16:33:12.611Z,71.36
2022-11-29T16:35:40.249Z,70.51
2022-11-29T16:38:07.608Z,69.10
2022-11-29T16:40:35.469Z,70.93
2022-11-29T16:43:02.970Z,70.67
2022-11-29T16:45:41.510Z,70.27
2022-11-29T16:48:30.007Z,72.83
2022-11-29T16:51:09.593Z,70.98
2022-11-29T16:53:38.216Z,72.03
2022-11-29T16:56:05.705Z,71.81
2022-11-29T16:58:34.025Z,70.33
2022-11-29T17:01:28.272Z,70.12
2022-11-29T17:03:59.566Z,70.09
2022-11-29T17:06:27.281Z,69.40
2022-11-29T17:08:55.720Z,69.80
2022-11-29T17:11:23.140Z,69.48
2022-11-29T17:13:50.997Z,70.67
2022-11-29T17:16:19.933Z,70.20
2022-11-29T17:18:47.489Z,72.66
2022-11-29T17:21:19.049Z,71.17
2022-11-29T17:23:46.475Z,70.62
2022-11-29T17:26:15.487Z,71.54
2022-11-29T17:28:47.116Z,71.17
2022-11-29T17:31:16.086Z,69.87
2022-11-29T17:33:43.729Z,69.85
2022-11-29T17:36:12.561Z,71.12
2022-11-29T17:38:40.762Z,72.35
2022-11-29T17:41:09.645Z,69.60
2022-11-29T17:43:37.427Z,69.01
2022-11-29T17:46:12.486Z,68.56
2022-11-29T17:48:40.457Z,70.14
2022-11-29T17:51:22.803Z,68.41
2022-11-29T17:53:55.677Z,69.38
2022-11-29T17:56:24.738Z,69.09
2022-11-29T17:58:55.566Z,68.75
2022-11-29T18:01:24.699Z,70.86
2022-11-29T18:03:53.649Z,71.52
2022-11-29T18:06:25.493Z,71.15
2022-11-29T18:08:57.617Z,72.86
2022-11-29T18:11:29.927Z,70.89
2022-11-29T18:13:58.014Z,70.56
2022-11-29T18:16:30.117Z,77.06
2022-11-29T18:19:02.497Z,73.78
2022-11-29T18:21:29.856Z,72.71
2022-11-29T18:23:58.937Z,69.91
2022-11-29T18:26:27.115Z,71.87
2022-11-29T18:28:54.908Z,69.88
2022-11-29T18:31:28.173Z,73.34
2022-11-29T18:33:57.785Z,71.70
2022-11-29T18:36:27.253Z,69.91
2022-11-29T18:38:58.625Z,71.31
2022-11-29T18:41:26.465Z,73.25
2022-11-29T18:44:00.837Z,71.72
2022-11-29T18:46:32.938Z,70.40
2022-11-29T18:49:01.072Z,71.79
2022-11-29T18:51:29.496Z,70.96
2022-11-29T18:53:57.502Z,73.68
2022-11-29T18:56:26.307Z,75.30
2022-11-29T18:58:58.957Z,78.21
2022-11-29T19:01:27.893Z,75.35
2022-11-29T19:03:56.852Z,76.62
2022-11-29T19:06:25.939Z,73.22
2022-11-29T19:08:53.428Z,71.58
2022-11-29T19:11:22.071Z,71.07
2022-11-29T19:13:53.491Z,70.24
2022-11-29T19:16:22.103Z,69.33
2022-11-29T19:18:53.973Z,73.52
2022-11-29T19:21:22.515Z,72.31
2022-11-29T19:23:53.930Z,70.31
2022-11-29T19:26:21.669Z,70.01
2022-11-29T19:28:49.552Z,70.00
2022-11-29T19:31:17.951Z,69.22
2022-11-29T19:33:45.748Z,69.21
2022-11-29T19:36:17.598Z,69.58
2022-11-29T19:38:48.804Z,69.82
2022-11-29T19:41:29.811Z,70.55
2022-11-29T19:43:58.199Z,71.20
2022-11-29T19:46:27.518Z,69.37
2022-11-29T19:48:56.012Z,70.91
2022-11-29T19:51:24.065Z,71.64
2022-11-29T19:53:53.033Z,71.24
2022-11-29T19:56:20.574Z,71.62
2022-11-29T19:58:48.959Z,69.81
2022-11-29T20:01:20.001Z,69.20
2022-11-29T20:03:47.735Z,70.96
2022-11-29T20:06:15.168Z,68.99
2022-11-29T20:08:42.844Z,69.77
2022-11-29T20:11:13.231Z,68.89
2022-11-29T20:13:41.240Z,68.44
2022-11-29T20:16:13.258Z,68.12
2022-11-29T20:18:48.729Z,68.32
2022-11-29T20:21:22.554Z,68.44
2022-11-29T20:23:54.010Z,68.14
2022-11-29T20:26:21.364Z,69.81
2022-11-29T20:28:48.710Z,68.47
2022-11-29T20:31:18.088Z,67.92
2022-11-29T20:33:46.439Z,70.24
2022-11-29T20:36:22.965Z,69.18
2022-11-29T20:39:28.914Z,71.17
2022-11-29T20:42:27.083Z,70.07
2022-11-29T20:44:56.380Z,68.92
2022-11-29T20:47:28.083Z,68.44
2022-11-29T20:49:56.160Z,67.76
2022-11-29T20:52:59.697Z,67.39
2022-11-29T20:55:27.325Z,68.02
2022-11-29T20:57:55.634Z,67.42
2022-11-29T21:00:23.123Z,70.34
2022-11-29T21:02:51.365Z,69.03
2022-11-29T21:05:19.393Z,67.56
2022-11-29T21:07:46.876Z,67.19
2022-11-29T21:10:17.538Z,70.63
2022-11-29T21:12:45.718Z,68.95
2022-11-29T21:15:14.070Z,67.49
2022-11-29T21:17:41.980Z,69.49
2022-11-29T21:20:14.147Z,70.60
2022-11-29T21:22:58.531Z,69.84
2022-11-29T21:25:44.815Z,70.77
2022-11-29T21:28:13.722Z,70.33
2022-11-29T21:30:41.529Z,70.92
2022-11-29T21:33:09.299Z,68.81
2022-11-29T21:35:39.733Z,69.64
2022-11-29T21:38:07.180Z,68.27
2022-11-29T21:40:34.606Z,66.65
2022-11-29T21:43:02.193Z,66.91
2022-11-29T21:45:29.548Z,67.49
2022-11-29T21:47:59.749Z,66.95
2022-11-29T21:50:27.356Z,65.20
2022-11-29T21:52:54.710Z,68.36
2022-11-29T21:55:22.088Z,67.40
2022-11-29T21:57:49.690Z,67.21
2022-11-29T22:00:17.458Z,66.82
2022-11-29T22:02:45.128Z,66.31
2022-11-29T22:05:12.534Z,66.61
2022-11-29T22:07:39.938Z,65.54
2022-11-29T22:10:13.168Z,65.35
2022-11-29T22:12:51.208Z,68.00
2022-11-29T22:15:24.447Z,67.32
2022-11-29T22:17:53.385Z,66.30
2022-11-29T22:20:21.076Z,64.17
2022-11-29T22:22:50.063Z,64.81
2022-11-29T22:25:17.604Z,66.00
2022-11-29T22:27:45.185Z,65.17
2022-11-29T22:30:12.785Z,65.27
2022-11-29T22:32:40.135Z,65.91
2022-11-29T22:35:08.138Z,65.96
2022-11-29T22:37:35.482Z,65.24
2022-11-29T22:40:02.838Z,64.67
2022-11-29T22:42:30.559Z,64.27
2022-11-29T22:44:57.896Z,64.04
2022-11-29T22:47:25.451Z,64.78
2022-11-29T22:49:53.048Z,67.13
2022-11-29T22:52:20.436Z,67.36
2022-11-29T22:54:47.948Z,66.22
2022-11-29T22:57:15.877Z,64.94
2022-11-29T22:59:43.261Z,64.73
2022-11-29T23:02:10.617Z,64.89
2022-11-29T23:04:38.226Z,64.01
2022-11-29T23:07:05.595Z,65.17
2022-11-29T23:09:32.904Z,64.39
2022-11-29T23:12:00.561Z,63.43
2022-11-29T23:14:27.875Z,66.53
2022-11-29T23:16:55.350Z,64.89
2022-11-29T23:19:23.002Z,64.79
2022-11-29T23:21:50.524Z,65.61
2022-11-29T23:24:17.854Z,64.84
2022-11-29T23:26:46.257Z,65.07
2022-11-29T23:29:15.325Z,65.31
2022-11-29T23:31:42.729Z,66.36
2022-11-29T23:34:10.380Z,66.61
2022-11-29T23:36:37.907Z,65.65
2022-11-29T23:39:06.725Z,65.12
2022-11-29T23:41:35.648Z,65.25
2022-11-29T23:44:06.230Z,66.39
2022-11-29T23:46:34.603Z,64.35
2022-11-29T23:49:01.920Z,64.60
2022-11-29T23:51:29.291Z,63.41
2022-11-29T23:53:56.923Z,64.20
2022-11-29T23:56:24.262Z,62.99
2022-11-29T23:58:51.579Z,61.96
